createdAt,value
2022-12-17T00:05:26.795Z,55.45
2022-12-17T00:11:05.962Z,42.03
2022-12-17T00:16:45.353Z,46.60
2022-12-17T00:22:24.741Z,51.60
2022-12-17T00:28:04.602Z,48.10
2022-12-17T00:33:43.803Z,44.10
2022-12-17T00:39:22.975Z,44.35
2022-12-17T00:45:02.183Z,49.35
2022-12-17T00:50:41.305Z,35.47
2022-12-17T00:56:20.631Z,48.50
2022-12-17T01:02:00.143Z,46.55
2022-12-17T01:07:39.241Z,38.28
2022-12-17T01:13:18.496Z,43.45
2022-12-17T01:18:57.861Z,45.85
2022-12-17T01:24:37.085Z,36.58
2022-12-17T01:30:16.433Z,43.00
2022-12-17T01:35:55.730Z,40.45
2022-12-17T01:41:36.015Z,44.35
2022-12-17T01:47:15.133Z,40.37
2022-12-17T01:52:54.310Z,31.88
2022-12-17T01:58:33.553Z,33.95
2022-12-17T02:04:13.423Z,36.70
2022-12-17T02:10:03.625Z,35.75
2022-12-17T02:15:59.334Z,26.75
2022-12-17T02:21:39.773Z,37.55
2022-12-17T02:27:25.466Z,37.45
2022-12-17T02:33:07.605Z,37.20
2022-12-17T02:38:49.376Z,31.08
2022-12-17T02:44:30.448Z,34.08
2022-12-17T02:50:12.208Z,25.60
2022-12-17T02:55:52.872Z,33.78
2022-12-17T03:01:33.459Z,29.45
2022-12-17T03:07:15.093Z,28.77
2022-12-17T03:12:55.286Z,30.63
2022-12-17T03:18:34.582Z,32.00
2022-12-17T03:24:13.718Z,28.58
2022-12-17T03:29:52.870Z,30.23
2022-12-17T03:35:32.428Z,31.23
2022-12-17T03:41:11.603Z,29.17
2022-12-17T03:46:51.085Z,31.83
2022-12-17T03:52:30.551Z,32.67
2022-12-17T03:58:09.917Z,22.00
2022-12-17T04:03:49.235Z,18.13
2022-12-17T04:09:28.362Z,25.55
2022-12-17T04:15:07.643Z,25.38
2022-12-17T04:20:47.088Z,25.80
2022-12-17T04:26:26.287Z,26.60
2022-12-17T04:32:05.378Z,28.67
2022-12-17T04:37:44.596Z,19.67
2022-12-17T04:43:25.201Z,27.05
2022-12-17T04:49:04.533Z,34.50
2022-12-17T04:54:43.700Z,27.92
2022-12-17T05:00:23.453Z,27.05
2022-12-17T05:06:03.248Z,27.73
2022-12-17T05:11:42.599Z,24.13
2022-12-17T05:17:21.961Z,26.60
2022-12-17T05:23:01.054Z,26.10
2022-12-17T05:28:40.236Z,23.27
2022-12-17T05:34:19.536Z,27.10
2022-12-17T05:39:58.856Z,30.15
2022-12-17T05:45:38.182Z,25.73
2022-12-17T05:51:17.582Z,24.77
2022-12-17T05:56:57.075Z,24.50
2022-12-17T06:02:36.277Z,17.33
2022-12-17T06:08:27.179Z,26.30
2022-12-17T06:14:06.552Z,26.30
2022-12-17T06:19:45.861Z,25.20
2022-12-17T06:25:25.276Z,29.60
2022-12-17T06:38:37.001Z,26.55
2022-12-17T06:44:16.472Z,26.43
2022-12-17T06:50:01.087Z,19.42
2022-12-17T06:55:40.950Z,24.92
2022-12-17T07:01:20.360Z,30.63
2022-12-17T07:06:59.443Z,31.20
2022-12-17T07:12:38.744Z,24.75
2022-12-17T07:18:22.986Z,26.20
2022-12-17T07:24:02.706Z,29.23
2022-12-17T07:29:41.987Z,28.90
2022-12-17T07:35:21.430Z,25.58
2022-12-17T07:41:01.228Z,28.38
2022-12-17T07:46:40.711Z,30.02
2022-12-17T07:52:19.858Z,25.73
2022-12-17T07:57:59.425Z,24.30
2022-12-17T08:03:39.226Z,22.13
2022-12-17T08:14:58.377Z,24.83
2022-12-17T08:20:37.710Z,23.17
2022-12-17T08:26:17.184Z,22.05
2022-12-17T08:31:56.398Z,22.70
2022-12-17T08:37:46.617Z,24.13
2022-12-17T08:43:30.980Z,17.98
2022-12-17T08:49:10.889Z,19.60
2022-12-17T08:54:50.286Z,23.47
2022-12-17T09:00:30.122Z,23.35
2022-12-17T09:06:11.005Z,13.45
2022-12-17T09:11:50.220Z,20.85
2022-12-17T09:17:29.838Z,17.05
2022-12-17T09:23:09.050Z,17.02
2022-12-17T09:28:48.357Z,13.32
2022-12-17T09:34:27.797Z,17.75
2022-12-17T09:40:07.092Z,17.55
2022-12-17T09:45:53.865Z,21.90
2022-12-17T09:51:59.303Z,20.90
2022-12-17T09:57:46.610Z,25.67
2022-12-17T10:03:39.537Z,19.13
2022-12-17T10:09:28.097Z,13.70
2022-12-17T10:15:07.389Z,17.30
2022-12-17T10:20:55.076Z,10.90
2022-12-17T10:26:44.401Z,15.90
2022-12-17T10:32:34.234Z,15.00
2022-12-17T10:38:13.592Z,19.65
2022-12-17T10:43:57.414Z,21.75
2022-12-17T10:49:39.382Z,13.63
2022-12-17T10:55:24.316Z,14.35
2022-12-17T11:01:06.707Z,16.27
2022-12-17T11:06:49.723Z,11.40
2022-12-17T11:12:32.064Z,12.02
2022-12-17T11:18:12.056Z,13.52
2022-12-17T11:23:54.839Z,14.15
2022-12-17T11:29:34.209Z,16.73
2022-12-17T11:35:35.337Z,13.70
2022-12-17T11:41:26.528Z,16.15
2022-12-17T11:47:30.875Z,19.05
2022-12-17T11:53:28.190Z,16.13
2022-12-17T11:59:18.571Z,20.30
2022-12-17T12:05:10.041Z,14.05
2022-12-17T12:10:59.573Z,18.80
2022-12-17T12:16:52.154Z,16.40
2022-12-17T12:22:38.470Z,15.95
2022-12-17T12:28:56.302Z,20.13
2022-12-17T12:34:51.194Z,13.35
2022-12-17T12:40:51.411Z,20.75
2022-12-17T12:46:52.938Z,24.40
2022-12-17T12:52:42.314Z,18.05
2022-12-17T12:58:39.467Z,15.85
2022-12-17T13:04:21.725Z,15.85
2022-12-17T13:09:51.054Z,17.08
2022-12-17T13:15:36.343Z,11.43
2022-12-17T13:21:06.210Z,16.15
2022-12-17T13:26:39.044Z,10.52
2022-12-17T13:32:26.011Z,17.45
2022-12-17T13:37:55.687Z,17.52
2022-12-17T13:43:19.715Z,14.27
2022-12-17T13:48:41.978Z,16.52
2022-12-17T13:54:04.542Z,22.35
2022-12-17T13:59:25.474Z,19.15
2022-12-17T14:04:52.906Z,12.57
2022-12-17T14:10:18.470Z,19.55
2022-12-17T14:15:44.664Z,19.35
2022-12-17T14:21:05.934Z,19.38
2022-12-17T14:26:26.781Z,22.40
2022-12-17T14:32:00.489Z,19.25
2022-12-17T14:37:24.602Z,14.82
2022-12-17T14:42:46.022Z,16.58
2022-12-17T14:48:16.110Z,18.05
2022-12-17T14:53:37.219Z,17.38
2022-12-17T14:58:58.156Z,19.55
2022-12-17T15:04:20.067Z,17.15
2022-12-17T15:09:42.262Z,16.75
2022-12-17T15:15:03.705Z,18.60
2022-12-17T15:20:24.542Z,18.80
2022-12-17T15:25:47.484Z,21.17
2022-12-17T15:31:14.093Z,18.70
2022-12-17T15:36:34.945Z,18.88
2022-12-17T15:42:14.452Z,20.00
2022-12-17T15:47:35.492Z,17.17
2022-12-17T15:52:56.306Z,21.35
2022-12-17T15:58:19.168Z,22.50
2022-12-17T16:03:39.870Z,18.02
2022-12-17T16:09:00.609Z,23.15
2022-12-17T16:14:22.787Z,17.80
2022-12-17T16:19:43.843Z,21.73
2022-12-17T16:25:05.244Z,28.60
2022-12-17T16:30:25.892Z,30.58
2022-12-17T16:35:51.780Z,22.13
2022-12-17T16:41:14.483Z,23.27
2022-12-17T16:46:38.794Z,21.15
2022-12-17T16:51:59.670Z,23.27
2022-12-17T16:57:20.479Z,22.23
2022-12-17T17:02:42.479Z,27.02
2022-12-17T17:08:04.696Z,24.88
2022-12-17T17:13:25.258Z,24.83
2022-12-17T17:18:46.514Z,24.90
2022-12-17T17:24:21.223Z,25.67
2022-12-17T17:29:42.917Z,26.88
2022-12-17T17:35:04.565Z,37.53
2022-12-17T17:40:26.173Z,45.05
2022-12-17T17:45:47.065Z,45.92
2022-12-17T17:51:12.260Z,48.10
2022-12-17T17:56:35.457Z,43.15
2022-12-17T18:01:56.651Z,44.83
2022-12-17T18:07:25.152Z,54.47
2022-12-17T18:13:05.230Z,58.73
2022-12-17T18:18:25.985Z,44.40
2022-12-17T18:23:48.557Z,45.15
2022-12-17T18:29:17.917Z,48.15
2022-12-17T18:34:38.836Z,45.20
2022-12-17T18:39:59.687Z,39.78
2022-12-17T18:45:20.559Z,32.72
2022-12-17T18:50:41.466Z,48.65
2022-12-17T18:56:12.183Z,49.80
2022-12-17T19:01:36.421Z,104.97
2022-12-17T19:06:57.096Z,94.00
2022-12-17T19:12:18.386Z,79.50
2022-12-17T19:17:39.154Z,84.57
2022-12-17T19:23:00.120Z,61.70
2022-12-17T19:28:21.048Z,40.08
2022-12-17T19:33:42.564Z,34.33
2022-12-17T19:39:06.457Z,31.80
2022-12-17T19:44:27.334Z,27.02
2022-12-17T19:49:48.324Z,25.70
2022-12-17T19:55:09.608Z,22.17
2022-12-17T20:00:30.530Z,21.92
2022-12-17T20:05:52.109Z,27.10
2022-12-17T20:11:34.837Z,26.58
2022-12-17T20:16:58.446Z,23.92
2022-12-17T20:22:19.423Z,26.48
2022-12-17T20:27:40.107Z,26.52
2022-12-17T20:33:00.868Z,27.30
2022-12-17T20:38:22.254Z,28.25
2022-12-17T20:43:43.479Z,52.22
2022-12-17T20:49:05.649Z,46.13
2022-12-17T20:54:26.415Z,40.85
2022-12-17T20:59:47.403Z,39.53
2022-12-17T21:05:08.439Z,37.50
2022-12-17T21:10:29.465Z,38.90
2022-12-17T21:15:51.031Z,41.15
2022-12-17T21:21:16.942Z,42.13
2022-12-17T21:26:41.787Z,30.20
2022-12-17T21:32:03.350Z,28.63
2022-12-17T21:37:24.219Z,26.38
2022-12-17T21:43:03.116Z,24.83
2022-12-17T21:48:24.782Z,23.25
2022-12-17T21:53:46.081Z,23.20
2022-12-17T21:59:06.963Z,24.80
2022-12-17T22:04:27.748Z,23.50
2022-12-17T22:10:06.022Z,23.65
2022-12-17T22:15:34.991Z,24.13
2022-12-17T22:21:09.460Z,31.35
2022-12-17T22:26:30.281Z,19.98
2022-12-17T22:32:09.686Z,18.70
2022-12-17T22:39:17.949Z,19.92
2022-12-17T22:44:37.805Z,23.67
2022-12-17T22:49:11.329Z,131.15
2022-12-17T22:54:32.163Z,90.35
2022-12-17T22:59:53.569Z,68.95
2022-12-17T23:05:14.775Z,61.70
2022-12-17T23:10:35.458Z,42.83
2022-12-17T23:15:56.288Z,35.97
2022-12-17T23:21:25.479Z,37.63
2022-12-17T23:26:46.497Z,61.30
2022-12-17T23:32:07.283Z,37.47
2022-12-17T23:37:28.128Z,34.05
2022-12-17T23:42:49.190Z,39.30
2022-12-17T23:48:09.965Z,33.72
2022-12-17T23:53:32.395Z,43.08
2022-12-17T23:59:01.123Z,49.17
